Other Surface Observations
Issued by NWS Great Falls, MT

Home | Current Version | Previous Version | Text Only | Print | Product List | Glossary On
Versions: 1 2 3 4 5 6 7 8 9 10 11 12 13 14 15 16 17 18 19 20 21 22 23 24 25 26 27 28 29 30 31 32 33 34 35 36 37 38 39 40 41 42 43 44 45 46 47 48 49 50
000
SXUS55 KTFX 181529
OSOTFX
AREA AWOS OBSERVATIONS
NATIONAL WEATHER SERVICE GREAT FALLS MT
0929 AM MDT FRI AUG 18 2017

METAR KPWD 181530Z AUTO 00000KT 10SM 20/10 A3000 RMK PLENTYWOOD
METAR KPO1 181530Z AUTO 00000KT 8SM 21/12 A3000 RMK POPLAR
METAR KS71 181530Z AUTO 00000KT 9SM 18/07 A2997 RMK CHINOOK
METAR K38S 181530Z AUTO 00000KT 5SM 16/02 A3020 RMK DEER LODGE
METAR K3U3 181530Z AUTO 15008KT 8SM 18/00 A3018 RMK ANACONDA
METAR K6S5 181530Z AUTO 00000KT 9SM 17/04 A3015 RMK HAMILTON
METAR KS59 181530Z AUTO 00000KT 10SM 17/06 A3005 RMK LIBBY
METAR K88M 181530Z AUTO 10SM 20/07 A3003 RMK EUREKA



USA.gov is the U.S. government's official web portal to all federal, state and local government web resources and services.